sensor_id;sensor_type;location;lat;lon;timestamp;pressure;altitude;pressure_sealevel;temperature;humidity
13314;BME280;6725;48.112;11.604;2023-01-10T00:01:47;94212.53;;;4.40;100.00
13314;BME280;6725;48.112;11.604;2023-01-10T00:04:13;94184.72;;;4.43;100.00
13314;BME280;6725;48.112;11.604;2023-01-10T00:06:38;94173.16;;;4.42;100.00
13314;BME280;6725;48.112;11.604;2023-01-10T00:09:03;94161.56;;;4.42;100.00
13314;BME280;6725;48.112;11.604;2023-01-10T00:11:29;94146.91;;;4.39;100.00
13314;BME280;6725;48.112;11.604;2023-01-10T00:14:12;94137.25;;;4.42;100.00
13314;BME280;6725;48.112;11.604;2023-01-10T00:16:38;94131.44;;;4.43;100.00
13314;BME280;6725;48.112;11.604;2023-01-10T00:19:05;94129.50;;;4.47;100.00
13314;BME280;6725;48.112;11.604;2023-01-10T00:21:31;94131.38;;;4.54;100.00
13314;BME280;6725;48.112;11.604;2023-01-10T00:23:56;94124.78;;;4.58;100.00
13314;BME280;6725;48.112;11.604;2023-01-10T00:26:40;94133.72;;;4.52;100.00
13314;BME280;6725;48.112;11.604;2023-01-10T00:29:06;94141.03;;;4.51;100.00
13314;BME280;6725;48.112;11.604;2023-01-10T00:31:32;94150.69;;;4.56;100.00
13314;BME280;6725;48.112;11.604;2023-01-10T00:33:57;94165.31;;;4.62;100.00
13314;BME280;6725;48.112;11.604;2023-01-10T00:36:22;94168.03;;;4.62;100.00
13314;BME280;6725;48.112;11.604;2023-01-10T00:38:48;94169.97;;;4.61;100.00
13314;BME280;6725;48.112;11.604;2023-01-10T00:41:14;94179.59;;;4.62;100.00
13314;BME280;6725;48.112;11.604;2023-01-10T00:43:58;94183.09;;;4.63;100.00
13314;BME280;6725;48.112;11.604;2023-01-10T00:46:23;94196.22;;;4.61;100.00
13314;BME280;6725;48.112;11.604;2023-01-10T00:48:49;94199.25;;;4.70;100.00
13314;BME280;6725;48.112;11.604;2023-01-10T00:51:14;94213.09;;;4.79;100.00
13314;BME280;6725;48.112;11.604;2023-01-10T00:53:39;94220.81;;;4.84;100.00
13314;BME280;6725;48.112;11.604;2023-01-10T00:56:05;94235.88;;;4.81;100.00
13314;BME280;6725;48.112;11.604;2023-01-10T00:58:30;94238.59;;;4.78;100.00
13314;BME280;6725;48.112;11.604;2023-01-10T01:00:57;94250.97;;;4.79;100.00
13314;BME280;6725;48.112;11.604;2023-01-10T01:03:22;94266.41;;;4.82;100.00
13314;BME280;6725;48.112;11.604;2023-01-10T01:05:48;94276.91;;;4.66;100.00
13314;BME280;6725;48.112;11.604;2023-01-10T01:08:15;94279.13;;;4.81;100.00
13314;BME280;6725;48.112;11.604;2023-01-10T01:10:41;94288.06;;;4.78;100.00
13314;BME280;6725;48.112;11.604;2023-01-10T01:13:19;94296.19;;;4.71;100.00
13314;BME280;6725;48.112;11.604;2023-01-10T01:15:48;94312.81;;;4.70;100.00
13314;BME280;6725;48.112;11.604;2023-01-10T01:18:16;94312.06;;;4.62;100.00
13314;BME280;6725;48.112;11.604;2023-01-10T01:20:42;94305.84;;;4.69;100.00
13314;BME280;6725;48.112;11.604;2023-01-10T01:23:10;94312.81;;;4.66;100.00
13314;BME280;6725;48.112;11.604;2023-01-10T01:25:35;94305.47;;;4.67;100.00
13314;BME280;6725;48.112;11.604;2023-01-10T01:28:00;94304.34;;;4.61;100.00
13314;BME280;6725;48.112;11.604;2023-01-10T01:30:26;94296.56;;;4.77;100.00
13314;BME280;6725;48.112;11.604;2023-01-10T01:32:51;94291.91;;;4.77;100.00
13314;BME280;6725;48.112;11.604;2023-01-10T01:35:17;94305.84;;;4.72;100.00
13314;BME280;6725;48.112;11.604;2023-01-10T01:37:43;94305.06;;;4.72;100.00
13314;BME280;6725;48.112;11.604;2023-01-10T01:40:17;94301.22;;;4.69;100.00
13314;BME280;6725;48.112;11.604;2023-01-10T01:42:44;94319.00;;;4.67;100.00
13314;BME280;6725;48.112;11.604;2023-01-10T01:50:41;94332.13;;;4.68;100.00
13314;BME280;6725;48.112;11.604;2023-01-10T01:53:18;94339.09;;;4.66;100.00
13314;BME280;6725;48.112;11.604;2023-01-10T01:55:46;94350.66;;;4.70;100.00
13314;BME280;6725;48.112;11.604;2023-01-10T01:58:15;94369.94;;;4.72;100.00
13314;BME280;6725;48.112;11.604;2023-01-10T02:00:43;94369.94;;;4.72;100.00
13314;BME280;6725;48.112;11.604;2023-01-10T02:03:09;94380.00;;;4.68;100.00
13314;BME280;6725;48.112;11.604;2023-01-10T02:05:38;94398.56;;;4.73;100.00
13314;BME280;6725;48.112;11.604;2023-01-10T02:08:05;94402.78;;;4.74;100.00
13314;BME280;6725;48.112;11.604;2023-01-10T02:13:14;94420.19;;;4.66;100.00
13314;BME280;6725;48.112;11.604;2023-01-10T02:15:40;94421.34;;;4.65;100.00
13314;BME280;6725;48.112;11.604;2023-01-10T02:18:06;94440.25;;;4.65;100.00
13314;BME280;6725;48.112;11.604;2023-01-10T02:20:55;94449.53;;;4.64;100.00
13314;BME280;6725;48.112;11.604;2023-01-10T02:34:27;94492.78;;;4.64;100.00
13314;BME280;6725;48.112;11.604;2023-01-10T02:39:39;94512.47;;;4.61;100.00
13314;BME280;6725;48.112;11.604;2023-01-10T02:42:24;94528.34;;;4.66;100.00
13314;BME280;6725;48.112;11.604;2023-01-10T02:45:20;94530.63;;;4.64;100.00
13314;BME280;6725;48.112;11.604;2023-01-10T02:47:47;94533.34;;;4.67;100.00
13314;BME280;6725;48.112;11.604;2023-01-10T02:53:04;94549.19;;;4.72;100.00
13314;BME280;6725;48.112;11.604;2023-01-10T02:55:49;94554.19;;;4.70;100.00
13314;BME280;6725;48.112;11.604;2023-01-10T02:58:39;94559.22;;;4.65;100.00
13314;BME280;6725;48.112;11.604;2023-01-10T03:07:06;94570.41;;;4.60;100.00
13314;BME280;6725;48.112;11.604;2023-01-10T03:09:51;94597.03;;;4.58;100.00
13314;BME280;6725;48.112;11.604;2023-01-10T03:12:36;94610.19;;;4.56;100.00
13314;BME280;6725;48.112;11.604;2023-01-10T03:15:06;94608.66;;;4.55;100.00
13314;BME280;6725;48.112;11.604;2023-01-10T03:17:33;94626.41;;;4.56;100.00
13314;BME280;6725;48.112;11.604;2023-01-10T03:20:02;94639.53;;;4.54;100.00
13314;BME280;6725;48.112;11.604;2023-01-10T03:22:30;94644.91;;;4.47;100.00
13314;BME280;6725;48.112;11.604;2023-01-10T03:24:58;94654.97;;;4.57;100.00
13314;BME280;6725;48.112;11.604;2023-01-10T03:27:31;94658.09;;;4.59;100.00
13314;BME280;6725;48.112;11.604;2023-01-10T03:30:05;94678.94;;;4.55;100.00
13314;BME280;6725;48.112;11.604;2023-01-10T03:32:31;94690.50;;;4.52;100.00
13314;BME280;6725;48.112;11.604;2023-01-10T03:35:00;94701.31;;;4.52;100.00
13314;BME280;6725;48.112;11.604;2023-01-10T03:37:43;94707.88;;;4.54;100.00
13314;BME280;6725;48.112;11.604;2023-01-10T03:40:27;94705.19;;;4.58;100.00
13314;BME280;6725;48.112;11.604;2023-01-10T03:43:02;94719.84;;;4.57;100.00
13314;BME280;6725;48.112;11.604;2023-01-10T03:45:54;94727.22;;;4.70;100.00
13314;BME280;6725;48.112;11.604;2023-01-10T03:48:26;94736.50;;;4.66;100.00
13314;BME280;6725;48.112;11.604;2023-01-10T03:50:52;94743.06;;;4.72;100.00
13314;BME280;6725;48.112;11.604;2023-01-10T03:53:18;94755.84;;;4.75;100.00
13314;BME280;6725;48.112;11.604;2023-01-10T03:55:44;94760.88;;;4.73;100.00
13314;BME280;6725;48.112;11.604;2023-01-10T03:58:09;94766.28;;;4.73;100.00
13314;BME280;6725;48.112;11.604;2023-01-10T04:00:35;94771.69;;;4.80;100.00
13314;BME280;6725;48.112;11.604;2023-01-10T04:03:03;94779.41;;;4.78;100.00
13314;BME280;6725;48.112;11.604;2023-01-10T04:05:28;94791.03;;;4.82;100.00
13314;BME280;6725;48.112;11.604;2023-01-10T04:07:54;94791.78;;;4.79;100.00
13314;BME280;6725;48.112;11.604;2023-01-10T04:10:19;94799.53;;;4.84;100.00
13314;BME280;6725;48.112;11.604;2023-01-10T04:12:45;94804.16;;;4.87;100.00
13314;BME280;6725;48.112;11.604;2023-01-10T04:15:10;94804.16;;;4.87;100.00
13314;BME280;6725;48.112;11.604;2023-01-10T04:17:36;94811.16;;;4.88;100.00
13314;BME280;6725;48.112;11.604;2023-01-10T04:20:01;94818.88;;;4.89;100.00
13314;BME280;6725;48.112;11.604;2023-01-10T04:22:27;94811.94;;;4.92;100.00
13314;BME280;6725;48.112;11.604;2023-01-10T04:24:52;94836.63;;;4.87;100.00
13314;BME280;6725;48.112;11.604;2023-01-10T04:27:19;94848.22;;;4.84;100.00
13314;BME280;6725;48.112;11.604;2023-01-10T04:29:45;94852.47;;;4.88;100.00
13314;BME280;6725;48.112;11.604;2023-01-10T04:32:10;94862.13;;;4.86;100.00
13314;BME280;6725;48.112;11.604;2023-01-10T04:34:35;94866.34;;;4.80;100.00
13314;BME280;6725;48.112;11.604;2023-01-10T04:37:01;94856.69;;;4.79;100.00
13314;BME280;6725;48.112;11.604;2023-01-10T04:39:26;94852.03;;;4.76;100.00
13314;BME280;6725;48.112;11.604;2023-01-10T04:41:51;94841.59;;;4.71;100.00
13314;BME280;6725;48.112;11.604;2023-01-10T04:44:17;94825.78;;;4.73;100.00
13314;BME280;6725;48.112;11.604;2023-01-10T04:46:42;94813.34;;;4.65;100.00
13314;BME280;6725;48.112;11.604;2023-01-10T04:49:09;94815.28;;;4.68;100.00
13314;BME280;6725;48.112;11.604;2023-01-10T04:51:34;94792.13;;;4.67;100.00
13314;BME280;6725;48.112;11.604;2023-01-10T04:53:59;94763.94;;;4.68;100.00
13314;BME280;6725;48.112;11.604;2023-01-10T04:56:25;94755.81;;;4.68;100.00
13314;BME280;6725;48.112;11.604;2023-01-10T04:58:50;94746.13;;;4.63;100.00
13314;BME280;6725;48.112;11.604;2023-01-10T05:01:19;94724.53;;;4.67;100.00
13314;BME280;6725;48.112;11.604;2023-01-10T05:03:48;94724.50;;;4.60;100.00
13314;BME280;6725;48.112;11.604;2023-01-10T05:06:14;94704.81;;;4.66;100.00
13314;BME280;6725;48.112;11.604;2023-01-10T05:08:39;94684.34;;;4.65;100.00
13314;BME280;6725;48.112;11.604;2023-01-10T05:11:05;94668.13;;;4.58;100.00
13314;BME280;6725;48.112;11.604;2023-01-10T05:13:30;94648.78;;;4.49;100.00
13314;BME280;6725;48.112;11.604;2023-01-10T05:15:56;94631.78;;;4.52;100.00
13314;BME280;6725;48.112;11.604;2023-01-10T05:18:23;94594.75;;;4.56;100.00
13314;BME280;6725;48.112;11.604;2023-01-10T05:20:48;94561.53;;;4.56;100.00
13314;BME280;6725;48.112;11.604;2023-01-10T05:23:14;94547.63;;;4.57;100.00
13314;BME280;6725;48.112;11.604;2023-01-10T05:25:39;94526.78;;;4.51;100.00
13314;BME280;6725;48.112;11.604;2023-01-10T05:28:04;94510.16;;;4.49;100.00
13314;BME280;6725;48.112;11.604;2023-01-10T05:30:30;94497.44;;;4.53;100.00
13314;BME280;6725;48.112;11.604;2023-01-10T05:32:55;94484.69;;;4.50;100.00
13314;BME280;6725;48.112;11.604;2023-01-10T05:35:20;94483.53;;;4.40;100.00
13314;BME280;6725;48.112;11.604;2023-01-10T05:37:46;94518.28;;;4.45;100.00
13314;BME280;6725;48.112;11.604;2023-01-10T05:40:11;94510.56;;;4.44;100.00
13314;BME280;6725;48.112;11.604;2023-01-10T05:42:37;94509.78;;;4.47;100.00
13314;BME280;6725;48.112;11.604;2023-01-10T05:45:03;94505.16;;;4.47;100.00
13314;BME280;6725;48.112;11.604;2023-01-10T05:47:29;94494.34;;;4.51;100.00
13314;BME280;6725;48.112;11.604;2023-01-10T05:49:54;94500.53;;;4.48;100.00
13314;BME280;6725;48.112;11.604;2023-01-10T05:52:19;94502.06;;;4.45;100.00
13314;BME280;6725;48.112;11.604;2023-01-10T05:54:45;94504.38;;;4.47;100.00
13314;BME280;6725;48.112;11.604;2023-01-10T05:57:10;94511.72;;;4.50;100.00
13314;BME280;6725;48.112;11.604;2023-01-10T05:59:36;94522.16;;;4.48;100.00
13314;BME280;6725;48.112;11.604;2023-01-10T06:02:01;94529.84;;;4.46;100.00
13314;BME280;6725;48.112;11.604;2023-01-10T06:04:26;94539.13;;;4.52;100.00
13314;BME280;6725;48.112;11.604;2023-01-10T06:06:52;94548.00;;;4.52;100.00
13314;BME280;6725;48.112;11.604;2023-01-10T06:09:17;94570.78;;;4.48;100.00
13314;BME280;6725;48.112;11.604;2023-01-10T06:11:42;94583.91;;;4.53;100.00
13314;BME280;6725;48.112;11.604;2023-01-10T06:14:08;94596.28;;;4.54;100.00
13314;BME280;6725;48.112;11.604;2023-01-10T06:16:33;94606.69;;;4.55;100.00
13314;BME280;6725;48.112;11.604;2023-01-10T06:18:58;94625.63;;;4.52;100.00
13314;BME280;6725;48.112;11.604;2023-01-10T06:21:24;94640.69;;;4.60;100.00
13314;BME280;6725;48.112;11.604;2023-01-10T06:23:49;94655.75;;;4.54;100.00
13314;BME280;6725;48.112;11.604;2023-01-10T06:26:14;94670.44;;;4.60;100.00
13314;BME280;6725;48.112;11.604;2023-01-10T06:28:40;94690.16;;;4.60;100.00
13314;BME280;6725;48.112;11.604;2023-01-10T06:31:06;94699.81;;;4.61;100.00
13314;BME280;6725;48.112;11.604;2023-01-10T06:33:32;94711.41;;;4.62;100.00
13314;BME280;6725;48.112;11.604;2023-01-10T06:35:57;94720.66;;;4.64;100.00
13314;BME280;6725;48.112;11.604;2023-01-10T06:38:22;94745.72;;;4.58;100.00
13314;BME280;6725;48.112;11.604;2023-01-10T06:40:48;94777.78;;;4.59;100.00
13314;BME280;6725;48.112;11.604;2023-01-10T06:43:13;94792.50;;;4.62;100.00
13314;BME280;6725;48.112;11.604;2023-01-10T06:45:38;94798.66;;;4.59;100.00
13314;BME280;6725;48.112;11.604;2023-01-10T06:48:04;94821.84;;;4.63;100.00
13314;BME280;6725;48.112;11.604;2023-01-10T06:50:29;94833.44;;;4.64;100.00
13314;BME280;6725;48.112;11.604;2023-01-10T06:53:00;94847.75;;;4.64;100.00
13314;BME280;6725;48.112;11.604;2023-01-10T06:55:27;94853.91;;;4.61;100.00
13314;BME280;6725;48.112;11.604;2023-01-10T06:57:58;94873.59;;;4.62;100.00
13314;BME280;6725;48.112;11.604;2023-01-10T07:00:24;94880.56;;;4.66;100.00
13314;BME280;6725;48.112;11.604;2023-01-10T07:02:52;94882.91;;;4.68;100.00
13314;BME280;6725;48.112;11.604;2023-01-10T07:05:19;94898.31;;;4.64;100.00
13314;BME280;6725;48.112;11.604;2023-01-10T07:07:44;94903.72;;;4.64;100.00
13314;BME280;6725;48.112;11.604;2023-01-10T07:10:10;94913.75;;;4.60;100.00
13314;BME280;6725;48.112;11.604;2023-01-10T07:12:35;94907.56;;;4.59;100.00
13314;BME280;6725;48.112;11.604;2023-01-10T07:15:00;94899.88;;;4.65;100.00
13314;BME280;6725;48.112;11.604;2023-01-10T07:17:26;94899.88;;;4.65;100.00
13314;BME280;6725;48.112;11.604;2023-01-10T07:19:51;94912.25;;;4.66;100.00
13314;BME280;6725;48.112;11.604;2023-01-10T07:22:16;94913.75;;;4.63;100.00
13314;BME280;6725;48.112;11.604;2023-01-10T07:24:42;94932.69;;;4.60;100.00
13314;BME280;6725;48.112;11.604;2023-01-10T07:27:07;94942.31;;;4.61;100.00
13314;BME280;6725;48.112;11.604;2023-01-10T07:29:32;94956.22;;;4.56;100.00
13314;BME280;6725;48.112;11.604;2023-01-10T07:31:58;94955.84;;;4.61;100.00
13314;BME280;6725;48.112;11.604;2023-01-10T07:34:23;94971.28;;;4.57;100.00
13314;BME280;6725;48.112;11.604;2023-01-10T07:36:48;94987.16;;;4.62;100.00
13314;BME280;6725;48.112;11.604;2023-01-10T07:39:14;94994.84;;;4.56;100.00
13314;BME280;6725;48.112;11.604;2023-01-10T07:41:39;95017.59;;;4.55;100.00
13314;BME280;6725;48.112;11.604;2023-01-10T07:44:05;95023.81;;;4.59;100.00
13314;BME280;6725;48.112;11.604;2023-01-10T07:46:30;95032.34;;;4.61;100.00
13314;BME280;6725;48.112;11.604;2023-01-10T07:48:55;95027.31;;;4.63;100.00
13314;BME280;6725;48.112;11.604;2023-01-10T07:51:21;95021.94;;;4.67;100.00
13314;BME280;6725;48.112;11.604;2023-01-10T07:53:46;95028.53;;;4.66;100.00
13314;BME280;6725;48.112;11.604;2023-01-10T07:56:11;95021.22;;;4.70;100.00
13314;BME280;6725;48.112;11.604;2023-01-10T07:58:37;95017.34;;;4.67;100.00
13314;BME280;6725;48.112;11.604;2023-01-10T08:01:03;95008.81;;;4.65;100.00
13314;BME280;6725;48.112;11.604;2023-01-10T08:03:29;95023.47;;;4.64;100.00
13314;BME280;6725;48.112;11.604;2023-01-10T08:06:03;95033.59;;;4.74;100.00
13314;BME280;6725;48.112;11.604;2023-01-10T08:08:29;95041.31;;;4.76;100.00
13314;BME280;6725;48.112;11.604;2023-01-10T08:10:55;95049.09;;;4.81;100.00
13314;BME280;6725;48.112;11.604;2023-01-10T08:13:21;95050.72;;;4.89;100.00
13314;BME280;6725;48.112;11.604;2023-01-10T08:15:47;95058.13;;;4.99;100.00
13314;BME280;6725;48.112;11.604;2023-01-10T08:18:14;95078.56;;;4.93;100.00
13314;BME280;6725;48.112;11.604;2023-01-10T08:20:40;95088.63;;;4.96;100.00
13314;BME280;6725;48.112;11.604;2023-01-10T08:23:06;95103.31;;;4.95;100.00
13314;BME280;6725;48.112;11.604;2023-01-10T08:25:31;95127.19;;;4.86;100.00
13314;BME280;6725;48.112;11.604;2023-01-10T08:27:57;95130.25;;;4.81;100.00
13314;BME280;6725;48.112;11.604;2023-01-10T08:30:22;95135.72;;;4.88;100.00
13314;BME280;6725;48.112;11.604;2023-01-10T08:32:48;95131.88;;;4.89;100.00
13314;BME280;6725;48.112;11.604;2023-01-10T08:35:13;95135.72;;;4.88;100.00
13314;BME280;6725;48.112;11.604;2023-01-10T08:37:38;95132.66;;;4.93;100.00
13314;BME280;6725;48.112;11.604;2023-01-10T08:40:04;95131.88;;;4.89;100.00
13314;BME280;6725;48.112;11.604;2023-01-10T08:42:30;95137.28;;;4.89;100.00
13314;BME280;6725;48.112;11.604;2023-01-10T08:44:55;95145.38;;;4.89;100.00
13314;BME280;6725;48.112;11.604;2023-01-10T08:47:21;95146.63;;;4.95;100.00
13314;BME280;6725;48.112;11.604;2023-01-10T08:49:46;95146.31;;;5.07;100.00
13314;BME280;6725;48.112;11.604;2023-01-10T08:52:14;95164.47;;;5.06;100.00
13314;BME280;6725;48.112;11.604;2023-01-10T08:54:40;95189.31;;;5.19;100.00
13314;BME280;6725;48.112;11.604;2023-01-10T08:57:08;95203.59;;;5.16;100.00
13314;BME280;6725;48.112;11.604;2023-01-10T08:59:34;95230.34;;;5.21;100.00
13314;BME280;6725;48.112;11.604;2023-01-10T09:01:59;95248.88;;;5.19;100.00
13314;BME280;6725;48.112;11.604;2023-01-10T09:04:25;95269.03;;;5.25;100.00
13314;BME280;6725;48.112;11.604;2023-01-10T09:06:53;95301.44;;;5.18;100.00
13314;BME280;6725;48.112;11.604;2023-01-10T09:09:18;95324.28;;;5.20;100.00
13314;BME280;6725;48.112;11.604;2023-01-10T09:11:43;95351.72;;;5.19;100.00
13314;BME280;6725;48.112;11.604;2023-01-10T09:14:09;95373.06;;;5.24;100.00
13314;BME280;6725;48.112;11.604;2023-01-10T09:16:34;95392.09;;;5.01;100.00
13314;BME280;6725;48.112;11.604;2023-01-10T09:18:59;95399.34;;;4.94;100.00
13314;BME280;6725;48.112;11.604;2023-01-10T09:21:26;95406.16;;;4.84;100.00
13314;BME280;6725;48.112;11.604;2023-01-10T09:23:52;95410.75;;;4.80;100.00
13314;BME280;6725;48.112;11.604;2023-01-10T09:26:17;95391.44;;;4.82;100.00
13314;BME280;6725;48.112;11.604;2023-01-10T09:28:43;95369.53;;;4.61;100.00
13314;BME280;6725;48.112;11.604;2023-01-10T09:31:08;95321.63;;;4.61;100.00
13314;BME280;6725;48.112;11.604;2023-01-10T09:33:35;95286.84;;;4.60;100.00
13314;BME280;6725;48.112;11.604;2023-01-10T09:36:00;95257.56;;;4.65;100.00
13314;BME280;6725;48.112;11.604;2023-01-10T09:38:27;95236.72;;;4.66;100.00
13314;BME280;6725;48.112;11.604;2023-01-10T09:46:19;95204.41;;;4.80;100.00
13314;BME280;6725;48.112;11.604;2023-01-10T09:51:58;95189.88;;;5.35;100.00
13314;BME280;6725;48.112;11.604;2023-01-10T09:54:30;95200.03;;;5.48;100.00
13314;BME280;6725;48.112;11.604;2023-01-10T09:56:58;95210.63;;;5.67;100.00
13314;BME280;6725;48.112;11.604;2023-01-10T09:59:35;95230.19;;;5.94;100.00
13314;BME280;6725;48.112;11.604;2023-01-10T10:04:58;95336.31;;;6.57;100.00
13314;BME280;6725;48.112;11.604;2023-01-10T10:07:25;95394.19;;;6.78;100.00
13314;BME280;6725;48.112;11.604;2023-01-10T10:09:50;95433.56;;;7.13;100.00
13314;BME280;6725;48.112;11.604;2023-01-10T10:12:33;95492.94;;;7.21;100.00
13314;BME280;6725;48.112;11.604;2023-01-10T10:18:16;95599.66;;;7.79;100.00
13314;BME280;6725;48.112;11.604;2023-01-10T10:20:50;95681.81;;;7.55;100.00
13314;BME280;6725;48.112;11.604;2023-01-10T10:30:25;95728.38;;;7.57;100.00
13314;BME280;6725;48.112;11.604;2023-01-10T10:32:27;95741.06;;;7.86;100.00
13314;BME280;6725;48.112;11.604;2023-01-10T10:35:12;95765.94;;;8.42;100.00
13314;BME280;6725;48.112;11.604;2023-01-10T10:37:40;95770.03;;;8.76;100.00
13314;BME280;6725;48.112;11.604;2023-01-10T10:42:41;95790.16;;;9.57;100.00
13314;BME280;6725;48.112;11.604;2023-01-10T10:48:29;95806.94;;;8.70;100.00
13314;BME280;6725;48.112;11.604;2023-01-10T10:51:02;95813.13;;;8.64;100.00
13314;BME280;6725;48.112;11.604;2023-01-10T10:53:30;95813.19;;;8.20;100.00
13314;BME280;6725;48.112;11.604;2023-01-10T10:55:56;95814.28;;;8.12;100.00
13314;BME280;6725;48.112;11.604;2023-01-10T10:58:22;95810.25;;;7.96;100.00
13314;BME280;6725;48.112;11.604;2023-01-10T11:00:49;95815.31;;;7.94;100.00
13314;BME280;6725;48.112;11.604;2023-01-10T11:03:29;95825.03;;;7.98;100.00
13314;BME280;6725;48.112;11.604;2023-01-10T11:05:56;95823.53;;;8.04;100.00
13314;BME280;6725;48.112;11.604;2023-01-10T11:08:23;95818.03;;;7.97;100.00
13314;BME280;6725;48.112;11.604;2023-01-10T11:10:53;95830.97;;;8.07;100.00
13314;BME280;6725;48.112;11.604;2023-01-10T11:15:57;95835.03;;;7.87;100.00
13314;BME280;6725;48.112;11.604;2023-01-10T11:18:26;95843.63;;;7.89;100.00
13314;BME280;6725;48.112;11.604;2023-01-10T11:21:01;95850.28;;;7.55;100.00
13314;BME280;6725;48.112;11.604;2023-01-10T11:23:49;95845.44;;;7.42;100.00
13314;BME280;6725;48.112;11.604;2023-01-10T11:26:29;95845.78;;;7.37;100.00
13314;BME280;6725;48.112;11.604;2023-01-10T11:29:08;95850.59;;;7.17;100.00
13314;BME280;6725;48.112;11.604;2023-01-10T11:31:38;95849.47;;;7.18;100.00
13314;BME280;6725;48.112;11.604;2023-01-10T11:34:15;95848.34;;;7.23;100.00
13314;BME280;6725;48.112;11.604;2023-01-10T11:36:56;95856.72;;;7.11;100.00
13314;BME280;6725;48.112;11.604;2023-01-10T11:39:22;95857.34;;;6.97;100.00
13314;BME280;6725;48.112;11.604;2023-01-10T11:41:47;95862.03;;;7.00;100.00
13314;BME280;6725;48.112;11.604;2023-01-10T11:44:27;95855.63;;;7.15;100.00
13314;BME280;6725;48.112;11.604;2023-01-10T11:46:56;95856.91;;;6.95;100.00
13314;BME280;6725;48.112;11.604;2023-01-10T11:51:58;95864.28;;;6.95;100.00
13314;BME280;6725;48.112;11.604;2023-01-10T11:54:26;95862.84;;;6.74;100.00
13314;BME280;6725;48.112;11.604;2023-01-10T11:56:58;95852.06;;;6.52;100.00
13314;BME280;6725;48.112;11.604;2023-01-10T11:59:25;95853.91;;;6.48;100.00
13314;BME280;6725;48.112;11.604;2023-01-10T12:04:43;95839.13;;;6.68;100.00
13314;BME280;6725;48.112;11.604;2023-01-10T12:07:11;95840.72;;;6.72;100.00
13314;BME280;6725;48.112;11.604;2023-01-10T12:09:42;95839.41;;;6.89;100.00
13314;BME280;6725;48.112;11.604;2023-01-10T12:12:25;95834.81;;;6.93;100.00
13314;BME280;6725;48.112;11.604;2023-01-10T12:14:52;95824.84;;;6.74;100.00
13314;BME280;6725;48.112;11.604;2023-01-10T12:17:27;95832.47;;;6.95;100.00
13314;BME280;6725;48.112;11.604;2023-01-10T12:19:56;95834.97;;;7.07;100.00
13314;BME280;6725;48.112;11.604;2023-01-10T12:22:37;95838.81;;;7.06;100.00
13314;BME280;6725;48.112;11.604;2023-01-10T12:25:19;95855.50;;;7.38;100.00
13314;BME280;6725;48.112;11.604;2023-01-10T12:27:46;95847.78;;;7.43;100.00
13314;BME280;6725;48.112;11.604;2023-01-10T12:33:01;95858.72;;;7.47;100.00
13314;BME280;6725;48.112;11.604;2023-01-10T12:41:04;95873.56;;;7.56;100.00
13314;BME280;6725;48.112;11.604;2023-01-10T12:43:39;95878.44;;;7.40;100.00
13314;BME280;6725;48.112;11.604;2023-01-10T12:46:39;95879.34;;;7.18;100.00
13314;BME280;6725;48.112;11.604;2023-01-10T12:49:42;95869.94;;;7.12;100.00
13314;BME280;6725;48.112;11.604;2023-01-10T12:52:17;95873.91;;;7.18;100.00
13314;BME280;6725;48.112;11.604;2023-01-10T12:54:45;95869.78;;;7.31;100.00
13314;BME280;6725;48.112;11.604;2023-01-10T12:57:34;95878.72;;;7.32;100.00
13314;BME280;6725;48.112;11.604;2023-01-10T13:00:05;95884.84;;;7.25;100.00
13314;BME280;6725;48.112;11.604;2023-01-10T13:02:41;95884.97;;;7.06;100.00
13314;BME280;6725;48.112;11.604;2023-01-10T13:05:18;95888.13;;;7.08;100.00
13314;BME280;6725;48.112;11.604;2023-01-10T13:07:44;95896.56;;;7.03;100.00
13314;BME280;6725;48.112;11.604;2023-01-10T13:10:14;95888.88;;;7.09;100.00
13314;BME280;6725;48.112;11.604;2023-01-10T13:12:43;95890.97;;;7.19;100.00
13314;BME280;6725;48.112;11.604;2023-01-10T13:15:37;95887.94;;;7.24;100.00
13314;BME280;6725;48.112;11.604;2023-01-10T13:18:22;95895.59;;;7.48;100.00
13314;BME280;6725;48.112;11.604;2023-01-10T13:21:04;95887.41;;;7.44;100.00
13314;BME280;6725;48.112;11.604;2023-01-10T13:24:19;95890.69;;;7.27;100.00
13314;BME280;6725;48.112;11.604;2023-01-10T13:26:19;95891.84;;;7.26;100.00
13314;BME280;6725;48.112;11.604;2023-01-10T13:31:25;95878.38;;;7.04;100.00
13314;BME280;6725;48.112;11.604;2023-01-10T13:34:13;95885.94;;;6.91;100.00
13314;BME280;6725;48.112;11.604;2023-01-10T13:36:48;95882.16;;;6.99;100.00
13314;BME280;6725;48.112;11.604;2023-01-10T13:39:28;95892.88;;;6.85;100.00
13314;BME280;6725;48.112;11.604;2023-01-10T14:08:59;95900.25;;;6.88;100.00
13314;BME280;6725;48.112;11.604;2023-01-10T14:11:50;95898.28;;;6.85;100.00
13314;BME280;6725;48.112;11.604;2023-01-10T14:14:22;95900.91;;;6.78;100.00
13314;BME280;6725;48.112;11.604;2023-01-10T14:16:55;95899.00;;;6.82;100.00
13314;BME280;6725;48.112;11.604;2023-01-10T14:19:31;95888.94;;;6.82;100.00
13314;BME280;6725;48.112;11.604;2023-01-10T14:22:00;95885.16;;;6.64;100.00
13314;BME280;6725;48.112;11.604;2023-01-10T14:24:28;95887.13;;;6.64;100.00
13314;BME280;6725;48.112;11.604;2023-01-10T14:26:59;95891.81;;;6.67;100.00
13314;BME280;6725;48.112;11.604;2023-01-10T14:29:28;95897.19;;;6.63;100.00
13314;BME280;6725;48.112;11.604;2023-01-10T14:31:57;95891.03;;;6.66;100.00
13314;BME280;6725;48.112;11.604;2023-01-10T14:34:29;95899.53;;;6.65;100.00
13314;BME280;6725;48.112;11.604;2023-01-10T14:37:08;95894.19;;;6.68;100.00
13314;BME280;6725;48.112;11.604;2023-01-10T14:39:41;95899.97;;;6.67;100.00
13314;BME280;6725;48.112;11.604;2023-01-10T14:42:12;95898.69;;;6.61;100.00
13314;BME280;6725;48.112;11.604;2023-01-10T14:47:58;95903.63;;;6.78;100.00
13314;BME280;6725;48.112;11.604;2023-01-10T14:50:27;95899.41;;;6.84;100.00
13314;BME280;6725;48.112;11.604;2023-01-10T14:52:54;95892.53;;;6.90;100.00
13314;BME280;6725;48.112;11.604;2023-01-10T14:55:20;95898.28;;;6.85;100.00
13314;BME280;6725;48.112;11.604;2023-01-10T15:00:32;95914.47;;;6.78;100.00